createdAt,value
2023-05-09T00:00:06.522Z,11.87
2023-05-09T00:01:06.807Z,11.87
2023-05-09T00:02:07.222Z,11.87
2023-05-09T00:03:07.192Z,14.13
2023-05-09T00:04:06.447Z,11.55
2023-05-09T00:05:06.404Z,12.20
2023-05-09T00:06:06.755Z,11.55
2023-05-09T00:07:06.391Z,11.23
2023-05-09T00:08:06.387Z,12.84
2023-05-09T00:09:06.379Z,11.23
2023-05-09T00:10:06.374Z,12.52
2023-05-09T00:11:06.357Z,15.42
2023-05-09T00:12:06.347Z,11.87
2023-05-09T00:13:06.423Z,13.49
2023-05-09T00:14:06.326Z,7.69
2023-05-09T00:15:07.190Z,7.36
2023-05-09T00:16:06.648Z,11.55
2023-05-09T00:17:06.303Z,16.06
2023-05-09T00:18:06.327Z,10.91
2023-05-09T00:19:06.288Z,11.55
2023-05-09T00:20:06.796Z,14.13
2023-05-09T00:21:06.268Z,7.36
2023-05-09T00:22:06.265Z,10.91
2023-05-09T00:23:06.252Z,11.23
2023-05-09T00:24:06.227Z,12.20
2023-05-09T00:25:06.578Z,11.23
2023-05-09T00:26:06.228Z,11.87
2023-05-09T00:27:06.213Z,13.49
2023-05-09T00:28:06.198Z,10.91
2023-05-09T00:29:06.236Z,10.91
2023-05-09T00:30:06.535Z,10.91
2023-05-09T00:31:06.176Z,11.87
2023-05-09T00:32:06.220Z,9.62
2023-05-09T00:33:06.177Z,15.42
2023-05-09T00:34:06.810Z,10.91
2023-05-09T00:35:06.138Z,10.59
2023-05-09T00:36:06.125Z,8.97
2023-05-09T00:37:06.113Z,7.69
2023-05-09T00:38:06.101Z,9.62
2023-05-09T00:39:06.445Z,12.84
2023-05-09T00:40:06.087Z,12.52
2023-05-09T00:41:06.082Z,13.16
2023-05-09T00:42:06.076Z,5.75
2023-05-09T00:43:06.482Z,11.23
2023-05-09T00:44:06.067Z,14.45
2023-05-09T00:45:06.042Z,12.84
2023-05-09T00:46:06.063Z,10.26
2023-05-09T00:47:06.025Z,11.23
2023-05-09T00:48:06.404Z,10.26
2023-05-09T00:49:06.004Z,14.78
2023-05-09T00:50:05.986Z,12.52
2023-05-09T00:51:05.984Z,15.10
2023-05-09T00:52:05.970Z,10.26
2023-05-09T00:53:06.269Z,5.75
2023-05-09T00:54:08.414Z,11.87
2023-05-09T00:55:05.954Z,12.20
2023-05-09T00:56:05.930Z,9.94
2023-05-09T00:57:06.425Z,8.97
2023-05-09T00:58:06.355Z,5.75
2023-05-09T00:59:05.905Z,12.84
2023-05-09T01:00:05.891Z,6.40
2023-05-09T01:01:05.900Z,10.91
2023-05-09T01:02:06.134Z,11.23
2023-05-09T01:03:05.902Z,8.33
2023-05-09T01:04:05.847Z,11.23
2023-05-09T01:05:05.859Z,12.84
2023-05-09T01:06:05.840Z,6.40
2023-05-09T01:07:05.838Z,19.93
2023-05-09T01:08:05.813Z,10.59
2023-05-09T01:09:05.805Z,11.23
2023-05-09T01:10:05.800Z,10.59
2023-05-09T01:11:05.804Z,11.23
2023-05-09T01:12:06.177Z,8.97
2023-05-09T01:13:05.805Z,17.35
2023-05-09T01:14:05.760Z,11.55
2023-05-09T01:15:05.753Z,10.59
2023-05-09T01:16:05.788Z,12.20
2023-05-09T01:17:05.740Z,10.91
2023-05-09T01:18:05.766Z,10.91
2023-05-09T01:19:05.708Z,10.59
2023-05-09T01:20:05.797Z,10.26
2023-05-09T01:21:05.713Z,10.59
2023-05-09T01:22:05.718Z,15.42
2023-05-09T01:23:05.684Z,11.23
2023-05-09T01:24:05.672Z,10.91
2023-05-09T01:25:06.053Z,14.78
2023-05-09T01:26:06.009Z,10.91
2023-05-09T01:27:05.702Z,8.97
2023-05-09T01:28:05.621Z,11.23
2023-05-09T01:29:05.666Z,8.01
2023-05-09T01:30:05.939Z,8.01
2023-05-09T01:31:05.669Z,11.55
2023-05-09T01:32:05.653Z,11.55
2023-05-09T01:33:05.852Z,10.59
2023-05-09T01:34:05.687Z,15.74
2023-05-09T01:35:05.919Z,15.42
2023-05-09T01:36:05.624Z,10.59
2023-05-09T01:37:05.637Z,10.91
2023-05-09T01:38:05.507Z,9.94
2023-05-09T01:39:05.893Z,11.87
2023-05-09T01:40:05.851Z,15.42
2023-05-09T01:41:05.661Z,8.65
2023-05-09T01:42:05.474Z,9.30
2023-05-09T01:43:05.477Z,10.91
2023-05-09T01:44:06.350Z,12.52
2023-05-09T01:45:05.459Z,13.49
2023-05-09T01:46:05.505Z,10.91
2023-05-09T01:47:05.430Z,11.23
2023-05-09T01:48:05.442Z,9.62
2023-05-09T01:49:05.783Z,15.74
2023-05-09T01:50:05.382Z,5.75
2023-05-09T01:51:05.381Z,10.59
2023-05-09T01:52:05.373Z,11.55
2023-05-09T01:53:05.383Z,13.49
2023-05-09T01:54:05.743Z,10.26
2023-05-09T01:55:05.354Z,11.55
2023-05-09T01:56:05.331Z,13.49
2023-05-09T01:57:05.325Z,9.94
2023-05-09T01:58:05.698Z,11.23
2023-05-09T01:59:05.300Z,9.30
2023-05-09T02:00:05.293Z,9.94
2023-05-09T02:01:05.302Z,14.45
2023-05-09T02:02:05.287Z,11.87
2023-05-09T02:03:05.342Z,7.36
2023-05-09T02:04:05.237Z,7.04
2023-05-09T02:05:05.253Z,8.01
2023-05-09T02:06:05.229Z,9.30
2023-05-09T02:07:05.752Z,8.33
2023-05-09T02:08:05.632Z,0.92
2023-05-09T02:09:05.201Z,11.87
2023-05-09T02:10:05.193Z,13.16
2023-05-09T02:11:05.197Z,10.91
2023-05-09T02:12:05.352Z,11.87
2023-05-09T02:13:05.197Z,10.59
2023-05-09T02:14:05.141Z,10.59
2023-05-09T02:15:05.138Z,10.91
2023-05-09T02:16:05.129Z,6.40
2023-05-09T02:17:05.509Z,12.52
2023-05-09T02:18:05.165Z,11.23
2023-05-09T02:19:05.098Z,10.91
2023-05-09T02:20:05.083Z,10.91
2023-05-09T02:21:05.209Z,11.23
2023-05-09T02:22:05.376Z,6.40
2023-05-09T02:23:05.065Z,7.04
2023-05-09T02:24:05.045Z,14.45
2023-05-09T02:25:05.027Z,10.26
2023-05-09T02:26:05.346Z,2.21
2023-05-09T02:27:05.010Z,11.87
2023-05-09T02:28:05.002Z,14.13
2023-05-09T02:29:04.991Z,10.26
2023-05-09T02:30:04.966Z,11.23
2023-05-09T02:31:04.994Z,16.71
2023-05-09T02:32:05.003Z,6.40
2023-05-09T02:33:05.014Z,10.26
2023-05-09T02:34:04.939Z,8.65
2023-05-09T02:35:05.113Z,6.72
2023-05-09T02:36:05.358Z,12.84
2023-05-09T02:37:04.907Z,15.42
2023-05-09T02:38:04.892Z,10.91
2023-05-09T02:39:04.926Z,9.94
2023-05-09T02:40:05.240Z,10.26
2023-05-09T02:41:04.864Z,10.59
2023-05-09T02:42:04.850Z,10.26
2023-05-09T02:43:04.846Z,8.33
2023-05-09T02:44:04.828Z,14.78
2023-05-09T02:45:04.954Z,11.55
2023-05-09T02:46:04.828Z,16.06
2023-05-09T02:47:04.802Z,6.40
2023-05-09T02:48:07.680Z,10.59
2023-05-09T02:49:05.426Z,10.59
2023-05-09T02:50:05.123Z,11.87
2023-05-09T02:51:04.759Z,6.40
2023-05-09T02:52:04.742Z,5.43
2023-05-09T02:53:04.737Z,10.26
2023-05-09T02:54:05.063Z,10.91
2023-05-09T02:55:04.727Z,5.75
2023-05-09T02:56:04.699Z,8.01
2023-05-09T02:57:04.702Z,15.42
2023-05-09T02:58:13.654Z,12.20
2023-05-09T02:59:05.140Z,10.91
2023-05-09T03:00:04.657Z,8.01
2023-05-09T03:01:04.635Z,11.23
2023-05-09T03:02:04.586Z,15.42
2023-05-09T03:03:05.084Z,12.20
2023-05-09T03:04:04.984Z,8.01
2023-05-09T03:05:04.622Z,11.23
2023-05-09T03:06:04.553Z,9.94
2023-05-09T03:07:04.536Z,8.65
2023-05-09T03:08:04.717Z,10.59
2023-05-09T03:09:04.573Z,6.07
2023-05-09T03:10:04.589Z,9.30
2023-05-09T03:11:04.508Z,6.40
2023-05-09T03:12:04.486Z,8.33
2023-05-09T03:13:04.868Z,10.26
2023-05-09T03:14:04.464Z,11.55
2023-05-09T03:15:04.451Z,10.26
2023-05-09T03:16:04.481Z,9.94
2023-05-09T03:17:04.781Z,9.62
2023-05-09T03:18:04.804Z,15.74
2023-05-09T03:19:04.403Z,11.23
2023-05-09T03:20:04.568Z,10.91
2023-05-09T03:21:04.395Z,4.79
2023-05-09T03:22:04.849Z,12.52
2023-05-09T03:23:04.720Z,10.59
2023-05-09T03:24:04.378Z,6.40
2023-05-09T03:25:04.462Z,9.30
2023-05-09T03:26:04.340Z,19.29
2023-05-09T03:27:04.606Z,10.26
2023-05-09T03:28:04.322Z,10.59
2023-05-09T03:29:04.305Z,8.65
2023-05-09T03:30:04.305Z,9.30
2023-05-09T03:31:05.181Z,7.69
2023-05-09T03:32:04.607Z,11.87
2023-05-09T03:33:04.316Z,11.55
2023-05-09T03:34:04.260Z,13.49
2023-05-09T03:35:04.261Z,8.97
2023-05-09T03:36:04.597Z,9.94
2023-05-09T03:37:04.612Z,10.59
2023-05-09T03:38:04.233Z,14.78
2023-05-09T03:39:04.203Z,8.65
2023-05-09T03:40:04.214Z,10.26
2023-05-09T03:41:04.572Z,15.10
2023-05-09T03:42:04.175Z,9.62
2023-05-09T03:43:04.170Z,8.65
2023-05-09T03:44:04.162Z,5.43
2023-05-09T03:45:04.137Z,4.79
2023-05-09T03:46:04.450Z,10.59
2023-05-09T03:47:04.209Z,9.94
2023-05-09T03:48:04.176Z,11.87
2023-05-09T03:49:04.102Z,7.36
2023-05-09T03:50:04.397Z,10.59
2023-05-09T03:51:04.556Z,4.79
2023-05-09T03:52:04.082Z,12.52
2023-05-09T03:53:04.054Z,11.55
2023-05-09T03:54:04.164Z,5.75
2023-05-09T03:55:04.835Z,6.07
2023-05-09T03:56:04.028Z,16.39
2023-05-09T03:57:04.018Z,6.72
2023-05-09T03:58:04.012Z,13.49
2023-05-09T03:59:03.987Z,14.45
2023-05-09T04:00:04.035Z,6.40
2023-05-09T04:01:03.971Z,10.26
2023-05-09T04:02:03.994Z,10.59
2023-05-09T04:03:03.996Z,5.11
2023-05-09T04:04:04.058Z,10.59
2023-05-09T04:05:04.007Z,10.59
2023-05-09T04:06:03.934Z,15.10
2023-05-09T04:07:03.915Z,9.94
2023-05-09T04:08:03.907Z,9.94
2023-05-09T04:09:03.929Z,10.91
2023-05-09T04:10:03.893Z,11.23
2023-05-09T04:11:03.868Z,16.06
2023-05-09T04:12:03.857Z,14.78
2023-05-09T04:13:04.234Z,5.43
2023-05-09T04:14:04.687Z,11.87
2023-05-09T04:15:03.828Z,4.79
2023-05-09T04:16:03.819Z,13.16
2023-05-09T04:17:03.927Z,5.43
2023-05-09T04:18:04.098Z,10.91
2023-05-09T04:19:03.782Z,7.36
2023-05-09T04:20:03.799Z,3.82
2023-05-09T04:21:03.758Z,8.33
2023-05-09T04:22:03.761Z,8.33
2023-05-09T04:23:03.754Z,10.59
2023-05-09T04:24:03.737Z,7.69
2023-05-09T04:25:03.713Z,8.97
2023-05-09T04:26:03.740Z,7.04
2023-05-09T04:27:03.716Z,6.72
2023-05-09T04:28:04.041Z,10.26
2023-05-09T04:29:03.680Z,9.94
2023-05-09T04:30:03.672Z,16.71
2023-05-09T04:31:03.748Z,10.26
2023-05-09T04:32:03.700Z,10.59
2023-05-09T04:33:03.707Z,13.81
2023-05-09T04:34:03.641Z,9.94
2023-05-09T04:35:03.619Z,15.42
2023-05-09T04:36:03.618Z,10.59
2023-05-09T04:37:03.980Z,10.91
2023-05-09T04:38:03.588Z,8.97
2023-05-09T04:39:03.574Z,14.13
2023-05-09T04:40:03.569Z,10.26
2023-05-09T04:41:03.920Z,10.91
2023-05-09T04:42:03.857Z,8.97
2023-05-09T04:43:03.535Z,9.94
2023-05-09T04:44:03.535Z,9.94
2023-05-09T04:45:03.544Z,8.01
2023-05-09T04:46:03.563Z,10.91
2023-05-09T04:47:03.495Z,13.81
2023-05-09T04:48:03.535Z,7.69
2023-05-09T04:49:03.490Z,9.62
2023-05-09T04:50:03.464Z,15.74
2023-05-09T04:51:03.465Z,14.78
2023-05-09T04:52:03.460Z,15.42
2023-05-09T04:53:03.443Z,11.55
2023-05-09T04:54:03.429Z,4.46
2023-05-09T04:55:03.436Z,15.42
2023-05-09T04:56:03.707Z,17.03
2023-05-09T04:57:16.517Z,6.07
2023-05-09T04:58:03.391Z,7.04
2023-05-09T04:59:03.377Z,12.84
2023-05-09T05:00:03.652Z,8.65
2023-05-09T05:01:03.360Z,6.72
2023-05-09T05:02:03.474Z,14.78
2023-05-09T05:03:03.449Z,10.91
2023-05-09T05:04:03.330Z,10.91
2023-05-09T05:05:17.522Z,15.42
2023-05-09T05:06:03.306Z,10.91
2023-05-09T05:07:03.299Z,15.10
2023-05-09T05:08:03.282Z,10.59
2023-05-09T05:09:03.277Z,11.87
2023-05-09T05:10:03.704Z,12.84
2023-05-09T05:11:03.254Z,9.30
2023-05-09T05:12:04.831Z,5.43
2023-05-09T05:13:03.324Z,10.91
2023-05-09T05:14:03.896Z,8.97
2023-05-09T05:15:03.244Z,15.74
2023-05-09T05:16:03.205Z,10.91
2023-05-09T05:17:03.185Z,11.23
2023-05-09T05:18:03.192Z,13.16
2023-05-09T05:19:03.508Z,11.87
2023-05-09T05:20:03.160Z,10.26
2023-05-09T05:21:03.136Z,11.87
2023-05-09T05:22:03.131Z,9.94
2023-05-09T05:23:03.142Z,10.91
2023-05-09T05:24:03.418Z,9.62
2023-05-09T05:25:03.096Z,10.59
2023-05-09T05:26:03.101Z,8.33
2023-05-09T05:27:03.073Z,11.23
2023-05-09T05:28:03.368Z,11.23
2023-05-09T05:29:03.057Z,11.23
2023-05-09T05:30:03.055Z,10.26
2023-05-09T05:31:03.042Z,14.13
2023-05-09T05:32:03.038Z,11.23
2023-05-09T05:33:03.603Z,12.20
2023-05-09T05:34:03.021Z,11.87
2023-05-09T05:35:02.998Z,11.55
2023-05-09T05:36:02.989Z,13.49
2023-05-09T05:37:03.281Z,11.55
2023-05-09T05:38:03.234Z,13.49
2023-05-09T05:39:02.947Z,14.45
2023-05-09T05:40:02.960Z,10.59
2023-05-09T05:41:02.931Z,11.87
2023-05-09T05:42:03.327Z,11.55
2023-05-09T05:43:02.921Z,5.75
2023-05-09T05:44:02.901Z,11.23
2023-05-09T05:45:02.882Z,6.40
2023-05-09T05:46:02.937Z,12.20
2023-05-09T05:47:03.678Z,14.78
2023-05-09T05:48:03.002Z,17.35
2023-05-09T05:49:02.862Z,8.65
2023-05-09T05:50:02.836Z,16.06
2023-05-09T05:51:03.174Z,6.72
2023-05-09T05:52:02.843Z,15.10
2023-05-09T05:53:02.805Z,16.39
2023-05-09T05:54:02.811Z,8.01
2023-05-09T05:55:02.805Z,12.20
2023-05-09T05:56:03.546Z,13.16
2023-05-09T05:57:02.768Z,18.32
2023-05-09T05:58:02.768Z,11.87
2023-05-09T05:59:02.751Z,12.20
2023-05-09T06:00:02.755Z,11.87
2023-05-09T06:01:03.211Z,11.23
2023-05-09T06:02:02.778Z,11.87
2023-05-09T06:03:02.786Z,11.55
2023-05-09T06:04:02.764Z,11.87
2023-05-09T06:05:02.715Z,11.87
2023-05-09T06:06:03.515Z,12.84
2023-05-09T06:07:02.674Z,7.04
2023-05-09T06:08:02.668Z,12.52
2023-05-09T06:09:02.658Z,15.74
2023-05-09T06:10:03.143Z,4.46
2023-05-09T06:11:02.649Z,10.26
2023-05-09T06:12:02.638Z,8.65
2023-05-09T06:13:02.648Z,17.35
2023-05-09T06:14:02.617Z,13.16
2023-05-09T06:15:02.865Z,17.68
2023-05-09T06:16:15.037Z,11.23
2023-05-09T06:17:02.609Z,9.62
2023-05-09T06:18:02.662Z,12.20
2023-05-09T06:19:03.325Z,12.84
2023-05-09T06:20:02.578Z,13.16
2023-05-09T06:21:02.558Z,11.87
2023-05-09T06:22:02.542Z,5.43
2023-05-09T06:23:02.549Z,9.30
2023-05-09T06:24:08.506Z,15.42
2023-05-09T06:25:02.513Z,8.01
2023-05-09T06:26:02.511Z,6.40
2023-05-09T06:27:02.495Z,12.20
2023-05-09T06:28:02.498Z,13.49
2023-05-09T06:29:03.342Z,13.16
2023-05-09T06:30:08.263Z,12.84
2023-05-09T06:31:02.505Z,6.07
2023-05-09T06:32:02.450Z,11.23
2023-05-09T06:33:02.478Z,9.62
2023-05-09T06:34:02.868Z,17.68
2023-05-09T06:35:02.417Z,15.74
2023-05-09T06:36:02.420Z,3.50
2023-05-09T06:37:02.397Z,13.16
2023-05-09T06:38:02.725Z,13.49
2023-05-09T06:39:02.724Z,14.13
2023-05-09T06:40:02.373Z,13.16
2023-05-09T06:41:02.353Z,12.52
2023-05-09T06:42:02.349Z,12.84
2023-05-09T06:43:02.890Z,15.42
2023-05-09T06:44:02.333Z,16.71
2023-05-09T06:45:02.327Z,13.49
2023-05-09T06:46:02.401Z,13.49
2023-05-09T06:47:02.289Z,18.32
2023-05-09T06:48:02.658Z,11.55
2023-05-09T06:49:02.275Z,9.30
2023-05-09T06:50:02.273Z,10.59
2023-05-09T06:51:02.248Z,13.49
2023-05-09T06:52:02.706Z,17.35
2023-05-09T06:53:02.551Z,13.81
2023-05-09T06:54:02.222Z,13.16
2023-05-09T06:55:02.205Z,13.81
2023-05-09T06:56:02.203Z,13.81
2023-05-09T06:57:02.602Z,14.13
2023-05-09T06:58:02.172Z,12.84
2023-05-09T06:59:02.156Z,12.84
2023-05-09T07:00:02.169Z,14.45
2023-05-09T07:01:02.407Z,17.68
2023-05-09T07:02:02.443Z,14.13
2023-05-09T07:03:02.127Z,14.78
2023-05-09T07:04:02.113Z,10.91
2023-05-09T07:05:02.135Z,14.45
2023-05-09T07:06:02.863Z,16.71
2023-05-09T07:07:02.084Z,18.32
2023-05-09T07:08:02.080Z,14.78
2023-05-09T07:09:02.051Z,16.39
2023-05-09T07:10:10.306Z,15.42
2023-05-09T07:11:02.208Z,11.55
2023-05-09T07:12:02.027Z,19.29
2023-05-09T07:13:02.062Z,16.39
2023-05-09T07:14:02.006Z,11.87
2023-05-09T07:15:02.410Z,15.42
2023-05-09T07:16:02.738Z,12.20
2023-05-09T07:17:18.196Z,16.39
2023-05-09T07:18:02.018Z,11.55
2023-05-09T07:19:01.942Z,21.22
2023-05-09T07:20:02.279Z,21.22
2023-05-09T07:21:01.926Z,14.13
2023-05-09T07:22:01.929Z,21.87
2023-05-09T07:23:01.979Z,13.49
2023-05-09T07:24:01.901Z,20.90
2023-05-09T07:25:02.368Z,18.00
2023-05-09T07:26:01.874Z,14.78
2023-05-09T07:27:01.875Z,14.78
2023-05-09T07:28:01.877Z,17.35
2023-05-09T07:29:02.437Z,22.83
2023-05-09T07:30:02.241Z,18.32
2023-05-09T07:31:01.833Z,18.64
2023-05-09T07:32:01.853Z,18.32
2023-05-09T07:33:01.942Z,18.96
2023-05-09T07:34:02.220Z,16.71
2023-05-09T07:35:01.810Z,15.42
2023-05-09T07:36:01.769Z,18.96
2023-05-09T07:37:01.763Z,18.00
2023-05-09T07:38:01.761Z,15.42
2023-05-09T07:39:02.291Z,16.71
2023-05-09T07:40:01.730Z,17.03
2023-05-09T07:41:01.727Z,22.51
2023-05-09T07:42:01.710Z,18.96
2023-05-09T07:43:02.022Z,18.32
2023-05-09T07:44:02.456Z,18.96
2023-05-09T07:45:01.679Z,19.29
2023-05-09T07:46:01.751Z,17.03
2023-05-09T07:47:01.665Z,16.71
2023-05-09T07:48:02.370Z,15.42
2023-05-09T07:49:01.642Z,18.64
2023-05-09T07:50:01.641Z,18.64
2023-05-09T07:51:01.631Z,18.00
2023-05-09T07:52:01.595Z,16.06
2023-05-09T07:53:01.974Z,18.32
2023-05-09T07:54:01.605Z,23.80
2023-05-09T07:55:01.570Z,19.29
2023-05-09T07:56:01.557Z,18.64
2023-05-09T07:57:02.249Z,18.64
2023-05-09T07:58:01.878Z,19.61
2023-05-09T07:59:01.529Z,19.29
2023-05-09T08:00:01.546Z,19.29
2023-05-09T08:01:01.512Z,22.19
2023-05-09T08:02:02.053Z,19.61
2023-05-09T08:03:01.651Z,18.64
2023-05-09T08:04:01.563Z,23.80
2023-05-09T08:05:01.466Z,20.90
2023-05-09T08:06:01.450Z,20.58
2023-05-09T08:07:02.077Z,20.90
2023-05-09T08:08:01.431Z,20.58
2023-05-09T08:09:01.428Z,17.68
2023-05-09T08:10:01.456Z,20.90
2023-05-09T08:11:01.773Z,21.87
2023-05-09T08:12:01.569Z,20.58
2023-05-09T08:13:01.466Z,21.22
2023-05-09T08:14:01.380Z,22.83
2023-05-09T08:15:01.387Z,19.61
2023-05-09T08:16:02.449Z,21.22
2023-05-09T08:17:01.342Z,21.22
2023-05-09T08:18:01.396Z,21.22
2023-05-09T08:19:01.326Z,22.83
2023-05-09T08:20:01.321Z,21.22
2023-05-09T08:21:01.846Z,17.35
2023-05-09T08:22:01.340Z,18.96
2023-05-09T08:23:01.290Z,26.70
2023-05-09T08:24:01.260Z,20.90
2023-05-09T08:25:01.626Z,17.35
2023-05-09T08:26:01.557Z,18.32
2023-05-09T08:27:01.243Z,24.12
2023-05-09T08:28:01.222Z,16.39
2023-05-09T08:29:01.222Z,20.58
2023-05-09T08:30:01.509Z,18.32
2023-05-09T08:31:01.264Z,19.93
2023-05-09T08:32:01.199Z,16.06
2023-05-09T08:33:01.192Z,17.68
2023-05-09T08:34:01.169Z,22.83
2023-05-09T08:35:01.441Z,16.71
2023-05-09T08:36:01.157Z,16.71
2023-05-09T08:37:01.132Z,19.61
2023-05-09T08:38:01.123Z,17.35
2023-05-09T08:39:01.562Z,16.39
2023-05-09T08:40:01.627Z,19.61
2023-05-09T08:41:01.096Z,19.61
2023-05-09T08:42:01.096Z,15.74
2023-05-09T08:43:01.096Z,19.93
2023-05-09T08:44:01.909Z,19.61
2023-05-09T08:45:01.054Z,17.68
2023-05-09T08:46:01.125Z,20.25
2023-05-09T08:47:01.144Z,18.32
2023-05-09T08:48:01.053Z,19.93
2023-05-09T08:49:01.806Z,21.22
2023-05-09T08:50:01.000Z,19.61
2023-05-09T08:51:01.003Z,19.93
2023-05-09T08:52:00.987Z,19.93
2023-05-09T08:53:01.453Z,18.96
2023-05-09T08:54:00.981Z,19.29
2023-05-09T08:55:00.947Z,21.22
2023-05-09T08:56:00.929Z,20.25
2023-05-09T08:57:00.947Z,21.22
2023-05-09T08:58:01.239Z,19.29
2023-05-09T08:59:00.908Z,23.15
2023-05-09T09:00:00.908Z,15.42
2023-05-09T09:01:00.896Z,19.61
2023-05-09T09:02:00.902Z,20.58
2023-05-09T09:03:01.332Z,19.93
2023-05-09T09:04:00.851Z,19.29
2023-05-09T09:05:00.876Z,19.93
2023-05-09T09:06:00.829Z,19.61
2023-05-09T09:07:00.825Z,22.51
2023-05-09T09:08:01.290Z,19.93
2023-05-09T09:09:00.809Z,19.93
2023-05-09T09:10:00.807Z,19.93
2023-05-09T09:11:00.780Z,20.25
2023-05-09T09:12:01.152Z,18.96
2023-05-09T09:13:01.291Z,20.25
2023-05-09T09:14:00.752Z,22.83
2023-05-09T09:15:00.737Z,20.25
2023-05-09T09:16:00.816Z,18.00
2023-05-09T09:17:01.539Z,19.93
2023-05-09T09:18:00.711Z,20.90
2023-05-09T09:19:00.694Z,20.25
2023-05-09T09:20:00.676Z,23.15
2023-05-09T09:21:00.699Z,19.61
2023-05-09T09:22:00.993Z,19.93
2023-05-09T09:23:00.650Z,20.58
2023-05-09T09:24:00.633Z,16.39
2023-05-09T09:25:00.634Z,17.03
2023-05-09T09:26:00.632Z,17.68
2023-05-09T09:27:01.282Z,19.29
2023-05-09T09:28:00.589Z,17.35
2023-05-09T09:29:00.592Z,20.25
2023-05-09T09:30:00.593Z,20.58
2023-05-09T09:31:00.934Z,22.51
2023-05-09T09:32:00.573Z,17.68
2023-05-09T09:33:00.743Z,18.96
2023-05-09T09:34:00.522Z,23.48
2023-05-09T09:35:00.831Z,19.93
2023-05-09T09:36:01.017Z,20.90
2023-05-09T09:37:00.494Z,26.05
2023-05-09T09:38:00.515Z,21.87
2023-05-09T09:39:00.558Z,22.51
2023-05-09T09:40:01.027Z,23.15
2023-05-09T09:41:00.465Z,22.51
2023-05-09T09:42:00.834Z,23.80
2023-05-09T09:43:00.436Z,27.02
2023-05-09T09:44:00.418Z,23.80
2023-05-09T09:45:00.406Z,21.54
2023-05-09T09:46:00.740Z,20.90
2023-05-09T09:47:00.387Z,25.09
2023-05-09T09:48:00.408Z,25.09
2023-05-09T09:49:01.117Z,26.05
2023-05-09T09:50:00.854Z,25.09
2023-05-09T09:51:00.362Z,24.44
2023-05-09T09:52:00.347Z,24.44
2023-05-09T09:53:00.329Z,24.12
2023-05-09T09:54:00.616Z,24.44
2023-05-09T09:55:00.310Z,25.73
2023-05-09T09:56:00.293Z,23.80
2023-05-09T09:57:00.286Z,26.70
2023-05-09T09:58:00.263Z,24.12
2023-05-09T09:59:01.091Z,24.12
2023-05-09T10:00:00.267Z,23.80
2023-05-09T10:01:00.259Z,22.19
2023-05-09T10:02:00.233Z,25.41
2023-05-09T10:03:00.630Z,21.54
2023-05-09T10:04:00.648Z,24.44
2023-05-09T10:05:00.196Z,22.19
2023-05-09T10:06:00.183Z,24.44
2023-05-09T10:07:00.208Z,23.80
2023-05-09T10:08:00.740Z,21.87
2023-05-09T10:09:00.162Z,24.12
2023-05-09T10:10:00.187Z,27.02
2023-05-09T10:11:00.151Z,21.54
2023-05-09T10:12:00.618Z,23.80
2023-05-09T10:13:00.642Z,22.51
2023-05-09T10:14:00.121Z,24.44
2023-05-09T10:15:00.113Z,24.77
2023-05-09T10:16:00.264Z,23.80
2023-05-09T10:17:00.748Z,24.12
2023-05-09T10:18:00.230Z,24.12
2023-05-09T10:19:00.127Z,22.51
2023-05-09T10:20:00.076Z,26.05
2023-05-09T10:21:00.040Z,24.77
2023-05-09T10:22:00.391Z,23.80
2023-05-09T10:23:00.028Z,24.77
2023-05-09T10:24:00.002Z,24.77
2023-05-09T10:24:59.995Z,27.34
2023-05-09T10:25:59.980Z,28.96
2023-05-09T10:27:00.295Z,21.87
2023-05-09T10:27:59.966Z,24.12
2023-05-09T10:28:59.949Z,24.44
2023-05-09T10:29:59.933Z,24.12
2023-05-09T10:31:00.500Z,24.44
2023-05-09T10:32:00.164Z,22.19
2023-05-09T10:32:59.916Z,24.44
2023-05-09T10:33:59.890Z,24.12
2023-05-09T10:34:59.889Z,24.77
2023-05-09T10:36:00.192Z,24.12
2023-05-09T10:36:59.868Z,23.48
2023-05-09T10:37:59.862Z,24.77
2023-05-09T10:38:59.849Z,23.80
2023-05-09T10:39:59.852Z,21.87
2023-05-09T10:41:00.045Z,24.12
2023-05-09T10:41:59.815Z,26.05
2023-05-09T10:42:59.805Z,20.25
2023-05-09T10:43:59.812Z,22.19
2023-05-09T10:45:00.468Z,23.80
2023-05-09T10:45:59.794Z,23.48
2023-05-09T10:46:59.885Z,22.19
2023-05-09T10:47:59.846Z,23.80
2023-05-09T10:48:59.748Z,24.12
2023-05-09T10:50:00.570Z,23.80
2023-05-09T10:50:59.715Z,23.15
2023-05-09T10:51:59.704Z,23.48
2023-05-09T10:52:59.699Z,20.90
2023-05-09T10:53:59.687Z,19.93
2023-05-09T10:55:00.075Z,23.48
2023-05-09T10:55:59.660Z,22.19
2023-05-09T10:56:59.653Z,24.12
2023-05-09T10:57:59.641Z,19.93
2023-05-09T10:59:00.402Z,22.51
2023-05-09T11:00:00.176Z,18.32
2023-05-09T11:00:59.616Z,21.54
2023-05-09T11:01:59.715Z,20.58
2023-05-09T11:02:59.644Z,21.54
2023-05-09T11:03:59.941Z,21.22
2023-05-09T11:04:59.572Z,22.19
2023-05-09T11:05:59.563Z,23.15
2023-05-09T11:06:59.554Z,17.68
2023-05-09T11:08:00.437Z,20.58
2023-05-09T11:08:59.969Z,16.71
2023-05-09T11:09:59.519Z,17.68
2023-05-09T11:10:59.514Z,21.22
2023-05-09T11:11:59.508Z,20.90
2023-05-09T11:12:59.571Z,20.90
2023-05-09T11:14:00.182Z,18.96
2023-05-09T11:14:59.472Z,20.90
2023-05-09T11:15:59.526Z,21.22
2023-05-09T11:16:59.448Z,20.58
2023-05-09T11:18:00.261Z,21.54
2023-05-09T11:18:59.431Z,21.22
2023-05-09T11:19:59.412Z,21.54
2023-05-09T11:20:59.418Z,22.51
2023-05-09T11:21:59.709Z,19.93
2023-05-09T11:22:59.721Z,19.61
2023-05-09T11:23:59.377Z,19.29
2023-05-09T11:24:59.368Z,25.41
2023-05-09T11:25:59.352Z,26.38
2023-05-09T11:27:00.079Z,21.87
2023-05-09T11:27:59.330Z,21.54
2023-05-09T11:28:59.345Z,21.22
2023-05-09T11:29:59.304Z,20.90
2023-05-09T11:30:59.317Z,21.22
2023-05-09T11:31:59.676Z,20.58
2023-05-09T11:32:59.359Z,24.12
2023-05-09T11:33:59.269Z,23.80
2023-05-09T11:34:59.262Z,20.90
2023-05-09T11:35:59.583Z,19.29
2023-05-09T11:36:59.537Z,20.58
2023-05-09T11:37:59.235Z,16.71
2023-05-09T11:38:59.218Z,19.93
2023-05-09T11:39:59.218Z,19.93
2023-05-09T11:40:59.530Z,20.25
2023-05-09T11:41:59.189Z,19.93
2023-05-09T11:42:59.178Z,21.54
2023-05-09T11:43:59.172Z,17.68
2023-05-09T11:44:59.160Z,19.29
2023-05-09T11:45:59.988Z,22.19
2023-05-09T11:46:59.139Z,16.39
2023-05-09T11:47:59.203Z,20.58
2023-05-09T11:48:59.113Z,19.29
2023-05-09T11:49:59.409Z,19.93
2023-05-09T11:50:59.431Z,16.06
2023-05-09T11:51:59.088Z,18.64
2023-05-09T11:52:59.072Z,19.61
2023-05-09T11:53:59.066Z,18.96
2023-05-09T11:54:59.430Z,19.29
2023-05-09T11:55:59.037Z,24.44
2023-05-09T11:56:59.035Z,19.93
2023-05-09T11:57:59.033Z,19.29
2023-05-09T11:58:59.006Z,22.51
2023-05-09T11:59:59.774Z,20.90
2023-05-09T12:00:58.988Z,19.29
2023-05-09T12:01:59.035Z,17.03
2023-05-09T12:02:59.081Z,20.58
2023-05-09T12:03:59.401Z,19.61
2023-05-09T12:04:59.287Z,19.61
2023-05-09T12:05:58.928Z,21.22
2023-05-09T12:06:58.927Z,22.51
2023-05-09T12:07:58.909Z,22.19
2023-05-09T12:08:59.774Z,16.06
2023-05-09T12:09:58.892Z,19.93
2023-05-09T12:10:58.886Z,21.54
2023-05-09T12:11:58.871Z,18.64
2023-05-09T12:12:58.862Z,22.51
2023-05-09T12:13:59.152Z,22.51
2023-05-09T12:14:58.940Z,19.93
2023-05-09T12:15:58.836Z,19.93
2023-05-09T12:16:58.814Z,17.35
2023-05-09T12:17:59.603Z,21.54
2023-05-09T12:18:59.100Z,19.61
2023-05-09T12:19:58.782Z,19.29
2023-05-09T12:20:58.771Z,19.61
2023-05-09T12:21:58.750Z,17.68
2023-05-09T12:22:58.756Z,19.93
2023-05-09T12:23:58.748Z,22.51
2023-05-09T12:24:58.724Z,19.29
2023-05-09T12:25:58.719Z,24.12
2023-05-09T12:26:58.697Z,22.51
2023-05-09T12:27:58.703Z,19.29
2023-05-09T12:28:58.671Z,20.25
2023-05-09T12:29:58.667Z,17.03
2023-05-09T12:30:58.687Z,18.96
2023-05-09T12:31:58.837Z,19.93
2023-05-09T12:32:58.949Z,20.90
2023-05-09T12:33:58.630Z,24.12
2023-05-09T12:34:58.603Z,16.39
2023-05-09T12:35:58.602Z,19.93
2023-05-09T12:36:58.953Z,20.25
2023-05-09T12:37:58.581Z,17.68
2023-05-09T12:38:58.576Z,18.00
2023-05-09T12:39:58.563Z,20.58
2023-05-09T12:40:58.540Z,19.29
2023-05-09T12:42:02.030Z,19.93
2023-05-09T12:42:58.541Z,16.06
2023-05-09T12:43:58.518Z,19.93
2023-05-09T12:44:58.498Z,18.96
2023-05-09T12:45:58.498Z,19.61
2023-05-09T12:46:58.839Z,18.64
2023-05-09T12:47:58.513Z,19.29
2023-05-09T12:48:58.456Z,17.68
2023-05-09T12:49:58.445Z,22.51
2023-05-09T12:50:58.736Z,18.96
2023-05-09T12:51:58.780Z,18.96
2023-05-09T12:53:03.419Z,18.96
2023-05-09T12:53:58.409Z,19.93
2023-05-09T12:54:58.386Z,19.61
2023-05-09T12:55:58.629Z,19.93